Time;durP1;ratioP1;P1;durP2;ratioP2;P2;SDS_P1;SDS_P2;PMS_P1;PMS_P2;Temp;Humidity;BMP_temperature;BMP_pressure;BME280_temperature;BME280_humidity;BME280_pressure;Samples;Min_cycle;Max_cycle;Signal;HPM_P1;HPM_P2
2023/01/19 00:01:50;;;;;;;7.07;3.53;;;25.10;37.60;;;;;;5068924;28;20732;-80
2023/01/19 00:04:17;;;;;;;6.93;3.77;;;25.20;38.30;;;;;;5055625;28;20230;-78
2023/01/19 00:06:45;;;;;;;7.63;3.73;;;25.10;37.60;;;;;;5068866;28;20219;-81
2023/01/19 00:09:12;;;;;;;9.57;4.37;;;25.10;37.70;;;;;;5068836;28;20738;-78
2023/01/19 00:11:39;;;;;;;7.90;3.93;;;25.10;37.70;;;;;;5068539;28;20286;-86
2023/01/19 00:14:06;;;;;;;8.37;3.97;;;25.10;37.70;;;;;;5069940;28;20191;-79
2023/01/19 00:16:33;;;;;;;8.67;4.00;;;25.10;37.70;;;;;;5068145;28;20245;-81
2023/01/19 00:19:00;;;;;;;7.20;3.87;;;25.10;37.70;;;;;;5068800;28;20287;-85
2023/01/19 00:21:27;;;;;;;7.77;3.93;;;25.10;37.70;;;;;;5067629;28;20302;-83
2023/01/19 00:23:56;;;;;;;7.60;3.87;;;25.10;37.70;;;;;;5068919;28;20282;-78
2023/01/19 00:26:23;;;;;;;11.90;5.03;;;25.10;37.70;;;;;;5067676;28;20196;-77
2023/01/19 00:28:50;;;;;;;13.87;5.60;;;25.00;37.60;;;;;;5066071;28;20306;-78
2023/01/19 00:31:19;;;;;;;7.63;3.73;;;25.10;37.70;;;;;;5068823;28;20274;-78
2023/01/19 00:33:48;;;;;;;10.43;4.63;;;25.00;37.60;;;;;;5068622;28;20272;-77
2023/01/19 00:36:15;;;;;;;7.87;3.77;;;25.00;37.60;;;;;;5068277;28;20215;-78
2023/01/19 00:38:42;;;;;;;7.60;4.17;;;25.10;37.70;;;;;;5048852;28;20204;-77
2023/01/19 00:41:10;;;;;;;8.13;3.57;;;25.00;37.60;;;;;;5048617;28;20284;-79
2023/01/19 00:43:36;;;;;;;10.47;4.73;;;25.00;37.60;;;;;;5049043;28;20283;-79
2023/01/19 00:46:03;;;;;;;6.23;3.47;;;25.00;37.60;;;;;;5067815;28;20293;-78
2023/01/19 00:48:30;;;;;;;8.90;4.27;;;25.00;37.60;;;;;;5068067;28;20294;-79
2023/01/19 00:50:58;;;;;;;7.03;3.83;;;25.00;37.60;;;;;;5064899;28;20210;-79
2023/01/19 00:53:27;;;;;;;9.23;4.20;;;25.00;37.60;;;;;;5067792;28;20190;-78
2023/01/19 00:55:54;;;;;;;9.03;3.97;;;25.00;37.60;;;;;;5068357;28;20325;-80
2023/01/19 00:58:23;;;;;;;8.87;3.90;;;24.90;37.50;;;;;;5063213;28;20199;-84
2023/01/19 01:00:50;;;;;;;11.00;4.73;;;25.00;37.60;;;;;;5065078;28;20286;-82
2023/01/19 01:03:17;;;;;;;9.90;3.97;;;25.00;37.60;;;;;;5067584;28;20291;-80
2023/01/19 01:05:47;;;;;;;7.27;3.63;;;24.90;37.50;;;;;;5061521;28;20189;-84
2023/01/19 01:08:13;;;;;;;7.07;3.20;;;25.00;37.60;;;;;;5060302;28;20275;-85
2023/01/19 01:10:40;;;;;;;7.17;3.43;;;24.90;37.50;;;;;;5065815;28;20250;-85
2023/01/19 01:13:07;;;;;;;6.80;3.40;;;24.90;37.50;;;;;;5048653;28;20306;-79
2023/01/19 01:15:36;;;;;;;6.07;3.10;;;24.90;37.50;;;;;;5048308;28;20247;-80
2023/01/19 01:18:03;;;;;;;8.10;3.60;;;24.90;37.50;;;;;;5048329;28;20324;-82
2023/01/19 01:20:32;;;;;;;5.43;3.20;;;24.90;37.50;;;;;;5048118;28;20273;-84
2023/01/19 01:22:59;;;;;;;7.83;3.40;;;24.90;37.50;;;;;;5060489;28;20566;-81
2023/01/19 01:25:29;;;;;;;7.17;3.57;;;24.90;37.60;;;;;;5067457;28;20202;-79
2023/01/19 01:27:57;;;;;;;7.00;3.43;;;24.90;37.50;;;;;;5065943;28;20211;-83
2023/01/19 01:30:26;;;;;;;6.73;3.43;;;24.90;37.60;;;;;;5052096;28;20665;-84
2023/01/19 01:32:55;;;;;;;6.40;3.20;;;24.90;37.60;;;;;;5052002;28;20228;-84
2023/01/19 01:35:25;;;;;;;5.83;3.17;;;24.80;37.50;;;;;;5051839;28;20269;-83
2023/01/19 01:37:52;;;;;;;6.60;3.23;;;24.80;37.50;;;;;;5066050;28;20302;-84
2023/01/19 01:40:19;;;;;;;6.17;3.00;;;24.80;37.50;;;;;;5071999;28;20192;-83
2023/01/19 01:42:47;;;;;;;7.23;3.40;;;24.80;37.50;;;;;;5071928;28;20276;-82
2023/01/19 01:45:31;;;;;;;8.13;3.73;;;24.80;37.50;;;;;;5069607;28;20655;-80
2023/01/19 01:48:03;;;;;;;6.33;3.17;;;24.80;37.40;;;;;;5071306;28;20282;-80
2023/01/19 01:50:33;;;;;;;5.93;3.13;;;24.80;37.50;;;;;;5071749;28;20203;-79
2023/01/19 01:53:05;;;;;;;5.70;3.20;;;24.80;37.60;;;;;;5070820;28;20290;-79
2023/01/19 01:55:34;;;;;;;5.97;3.10;;;24.80;37.60;;;;;;5070892;28;20238;-79
2023/01/19 01:58:05;;;;;;;8.17;3.93;;;24.80;37.60;;;;;;5071665;28;20654;-84
2023/01/19 02:02:49;;;;;;;7.67;3.40;;;24.80;37.60;;;;;;5071824;28;20624;-83
2023/01/19 02:03:21;;;;;;;7.93;3.43;;;24.80;37.60;;;;;;5055041;28;20203;-82
2023/01/19 02:05:49;;;;;;;8.00;3.67;;;24.80;37.60;;;;;;5051419;28;20192;-81
2023/01/19 02:13:50;;;;;;;6.17;3.20;;;24.80;37.70;;;;;;5059184;28;20280;-84
2023/01/19 02:16:17;;;;;;;7.10;3.33;;;24.80;37.70;;;;;;5070052;28;20219;-82
2023/01/19 02:18:45;;;;;;;9.73;4.23;;;24.70;37.60;;;;;;5069243;28;20283;-85
2023/01/19 02:21:19;;;;;;;6.60;3.30;;;24.80;37.70;;;;;;5069968;28;20286;-84
2023/01/19 02:23:50;;;;;;;7.97;3.70;;;24.80;37.60;;;;;;5070519;28;20223;-82
2023/01/19 02:26:20;;;;;;;6.70;3.17;;;24.80;37.80;;;;;;5070976;28;20207;-85
2023/01/19 02:28:52;;;;;;;6.37;3.27;;;24.80;37.80;;;;;;5070878;28;20203;-84
2023/01/19 02:31:19;;;;;;;5.43;2.80;;;24.70;37.70;;;;;;5069688;28;20223;-85
2023/01/19 02:33:46;;;;;;;8.57;3.83;;;24.80;37.80;;;;;;5070923;28;20204;-82
2023/01/19 02:36:16;;;;;;;6.13;2.97;;;24.70;37.70;;;;;;5070947;28;20199;-79
2023/01/19 02:38:46;;;;;;;11.00;4.30;;;24.70;37.70;;;;;;5065627;28;20187;-82
2023/01/19 02:41:19;;;;;;;8.07;3.77;;;24.80;37.80;;;;;;5068186;28;20226;-85
2023/01/19 02:43:48;;;;;;;8.33;3.70;;;24.70;37.70;;;;;;5069487;28;20253;-82
2023/01/19 02:46:15;;;;;;;9.50;4.17;;;24.70;37.70;;;;;;5069296;28;20288;-80
2023/01/19 02:48:42;;;;;;;6.10;3.17;;;24.70;37.70;;;;;;5070262;28;20643;-81
2023/01/19 02:51:14;;;;;;;7.37;3.33;;;24.70;37.80;;;;;;5070101;28;20199;-81
2023/01/19 02:54:08;;;;;;;5.17;2.67;;;24.70;37.80;;;;;;5069316;28;20226;-83
2023/01/19 02:57:10;;;;;;;6.10;3.03;;;24.70;37.60;;;;;;5058455;28;20234;-83
2023/01/19 02:59:50;;;;;;;7.13;3.17;;;24.70;37.60;;;;;;5048798;28;20209;-84
2023/01/19 03:02:29;;;;;;;6.33;2.90;;;24.70;37.60;;;;;;5070405;28;20199;-84
2023/01/19 03:05:09;;;;;;;14.47;5.53;;;24.70;37.70;;;;;;5069056;28;20211;-84
2023/01/19 03:07:49;;;;;;;6.57;3.10;;;24.70;37.70;;;;;;5069116;28;20290;-84
2023/01/19 03:10:20;;;;;;;6.80;3.20;;;24.70;37.70;;;;;;5061313;28;20200;-84
2023/01/19 03:12:54;;;;;;;6.50;2.97;;;24.70;37.80;;;;;;5050058;28;20208;-84
2023/01/19 03:15:26;;;;;;;6.50;3.03;;;24.70;37.80;;;;;;5068152;28;20207;-85
2023/01/19 03:17:57;;;;;;;11.27;4.13;;;24.70;37.80;;;;;;5066637;28;20277;-86
2023/01/19 03:20:28;;;;;;;6.03;3.00;;;24.70;37.80;;;;;;5069170;28;20211;-83
2023/01/19 03:23:00;;;;;;;8.00;3.47;;;24.70;37.90;;;;;;5069846;28;20850;-83
2023/01/19 03:25:31;;;;;;;6.47;3.10;;;24.70;37.80;;;;;;5068657;28;20204;-84
2023/01/19 03:27:59;;;;;;;12.73;5.40;;;24.70;38.00;;;;;;5067071;28;20749;-84
2023/01/19 03:30:30;;;;;;;5.77;2.83;;;24.70;38.00;;;;;;5059295;28;20290;-84
2023/01/19 03:33:03;;;;;;;10.17;3.87;;;24.70;37.90;;;;;;5063482;28;20216;-85
2023/01/19 03:35:35;;;;;;;7.03;2.97;;;24.70;38.00;;;;;;5049854;28;20315;-84
2023/01/19 03:38:07;;;;;;;8.27;3.47;;;24.70;38.00;;;;;;5056179;28;20230;-81
2023/01/19 03:40:36;;;;;;;5.40;2.63;;;24.70;38.00;;;;;;5068788;28;20231;-81
2023/01/19 03:43:05;;;;;;;6.30;3.00;;;24.70;38.60;;;;;;5068986;28;20207;-84
2023/01/19 03:45:34;;;;;;;5.17;2.50;;;24.70;38.00;;;;;;5069413;28;20209;-79
2023/01/19 03:48:01;;;;;;;7.73;3.20;;;24.60;37.90;;;;;;5067530;28;20282;-78
2023/01/19 03:50:30;;;;;;;4.60;2.40;;;24.70;38.00;;;;;;5067433;28;20211;-84
2023/01/19 03:53:02;;;;;;;6.33;3.10;;;24.70;38.00;;;;;;5069228;28;20210;-84
2023/01/19 03:55:29;;;;;;;5.63;2.73;;;24.70;38.00;;;;;;5069492;28;20210;-84
2023/01/19 03:57:56;;;;;;;11.10;4.27;;;24.70;38.00;;;;;;5067005;28;20220;-84
2023/01/19 04:00:24;;;;;;;7.73;3.30;;;24.70;38.00;;;;;;5069054;28;20258;-79
2023/01/19 04:02:51;;;;;;;6.47;3.00;;;24.70;38.00;;;;;;5066680;28;20199;-83
2023/01/19 04:05:19;;;;;;;7.63;3.37;;;24.70;38.00;;;;;;5068664;28;20909;-79
2023/01/19 04:07:48;;;;;;;6.87;3.30;;;24.60;38.00;;;;;;5069568;28;20208;-84
2023/01/19 04:10:16;;;;;;;5.63;2.87;;;24.60;38.00;;;;;;5069672;28;20253;-83
2023/01/19 04:12:43;;;;;;;6.63;3.00;;;24.60;38.00;;;;;;5068183;28;20655;-84
2023/01/19 04:15:10;;;;;;;7.63;3.30;;;24.70;38.00;;;;;;5069503;28;20291;-84
2023/01/19 04:17:39;;;;;;;7.27;3.10;;;24.70;38.00;;;;;;5068544;28;20263;-85
2023/01/19 04:20:06;;;;;;;7.20;3.00;;;24.60;37.90;;;;;;5068119;28;20214;-85
2023/01/19 04:22:34;;;;;;;6.63;3.00;;;24.60;38.00;;;;;;5068321;28;20203;-81
2023/01/19 04:25:01;;;;;;;6.47;2.93;;;24.60;38.00;;;;;;5068796;28;20195;-84
2023/01/19 04:27:28;;;;;;;5.53;2.63;;;24.60;38.00;;;;;;5065424;28;20716;-84
2023/01/19 04:29:55;;;;;;;5.00;2.43;;;24.60;37.90;;;;;;5068754;28;20322;-84
2023/01/19 04:32:22;;;;;;;5.37;2.57;;;24.60;38.00;;;;;;5065644;28;20302;-83
2023/01/19 04:34:51;;;;;;;10.57;4.40;;;24.60;38.00;;;;;;5067993;28;20227;-82
2023/01/19 04:37:18;;;;;;;9.07;3.80;;;24.70;38.00;;;;;;5067864;28;20703;-81
2023/01/19 04:39:44;;;;;;;7.00;3.17;;;24.60;38.00;;;;;;5068701;28;20290;-80
2023/01/19 04:42:11;;;;;;;6.20;2.93;;;24.60;38.00;;;;;;5066785;28;20738;-80
2023/01/19 04:44:38;;;;;;;5.83;2.90;;;24.60;38.00;;;;;;5068714;28;20214;-79
2023/01/19 04:47:05;;;;;;;7.73;3.57;;;24.60;38.00;;;;;;5064703;28;20209;-81
2023/01/19 04:49:32;;;;;;;6.43;2.87;;;24.60;38.00;;;;;;5068637;28;20199;-79
2023/01/19 04:52:01;;;;;;;8.10;3.33;;;24.60;38.00;;;;;;5066273;28;20206;-84
2023/01/19 04:54:28;;;;;;;8.10;3.47;;;24.60;38.00;;;;;;5067093;28;20203;-83
2023/01/19 04:56:54;;;;;;;8.20;2.97;;;24.60;38.00;;;;;;5066274;28;20202;-83
2023/01/19 04:59:22;;;;;;;5.70;2.70;;;24.60;38.00;;;;;;5060681;28;20271;-84
2023/01/19 05:01:49;;;;;;;12.90;4.73;;;24.60;37.90;;;;;;5065361;28;20607;-83
2023/01/19 05:04:16;;;;;;;10.33;4.17;;;24.60;38.00;;;;;;5071163;28;20205;-82
2023/01/19 05:06:43;;;;;;;8.37;3.47;;;24.60;38.00;;;;;;5073127;28;20192;-83
2023/01/19 05:09:13;;;;;;;5.97;2.90;;;24.60;38.00;;;;;;5065813;28;20287;-83
2023/01/19 05:11:41;;;;;;;6.97;3.03;;;24.60;38.00;;;;;;5053047;28;20243;-84
2023/01/19 05:14:08;;;;;;;7.97;3.40;;;24.60;37.90;;;;;;5052763;28;20609;-83
2023/01/19 05:16:35;;;;;;;6.50;2.90;;;24.50;37.90;;;;;;5052428;28;20652;-83
2023/01/19 05:19:02;;;;;;;10.30;4.13;;;24.60;38.00;;;;;;5054567;28;20238;-83
2023/01/19 05:21:29;;;;;;;5.97;2.87;;;24.60;38.00;;;;;;5071917;28;20294;-83
2023/01/19 05:23:56;;;;;;;10.27;3.80;;;24.50;37.90;;;;;;5069903;28;20203;-82
2023/01/19 05:26:24;;;;;;;7.70;3.13;;;24.50;37.90;;;;;;5062652;28;20287;-84
2023/01/19 05:28:51;;;;;;;8.87;3.33;;;24.60;38.00;;;;;;5051799;28;20204;-83
2023/01/19 05:31:18;;;;;;;7.67;3.10;;;24.50;37.90;;;;;;5052209;28;20708;-83
2023/01/19 05:33:45;;;;;;;11.70;4.60;;;24.50;37.90;;;;;;5053137;28;20287;-83
2023/01/19 05:36:12;;;;;;;8.17;3.30;;;24.60;38.00;;;;;;5070406;28;20596;-84
2023/01/19 05:38:39;;;;;;;4.77;2.63;;;24.50;37.90;;;;;;5072286;28;20231;-83
2023/01/19 05:41:06;;;;;;;6.60;3.10;;;24.50;38.50;;;;;;5071619;28;20302;-80
2023/01/19 05:43:36;;;;;;;6.77;3.00;;;24.50;37.90;;;;;;5068140;28;20291;-83
2023/01/19 05:46:04;;;;;;;7.10;3.13;;;24.50;37.80;;;;;;5067594;28;20199;-83
2023/01/19 05:48:31;;;;;;;6.17;2.70;;;24.50;37.90;;;;;;5054451;28;20648;-83
2023/01/19 05:50:58;;;;;;;6.93;2.80;;;24.50;37.90;;;;;;5071166;28;20214;-82
2023/01/19 05:53:26;;;;;;;6.23;2.97;;;24.50;37.90;;;;;;5071343;28;20199;-83
2023/01/19 05:55:53;;;;;;;8.53;3.53;;;24.50;37.90;;;;;;5070591;28;20207;-80
2023/01/19 05:58:20;;;;;;;8.20;3.27;;;24.50;37.90;;;;;;5071099;28;20314;-83
2023/01/19 06:00:48;;;;;;;9.20;3.73;;;24.50;37.90;;;;;;5070000;28;20199;-83
2023/01/19 06:03:15;;;;;;;6.63;2.87;;;24.50;37.90;;;;;;5068426;28;20241;-83
2023/01/19 06:05:42;;;;;;;7.53;2.87;;;24.50;37.90;;;;;;5070935;28;20235;-83
2023/01/19 06:08:09;;;;;;;7.70;3.27;;;24.50;37.90;;;;;;5069828;28;20200;-83
2023/01/19 06:10:36;;;;;;;8.53;3.27;;;24.50;37.90;;;;;;5061120;28;20243;-83
2023/01/19 06:13:03;;;;;;;7.60;3.53;;;24.50;37.90;;;;;;5064583;28;20203;-84
2023/01/19 06:15:29;;;;;;;6.00;3.13;;;24.50;37.90;;;;;;5068437;28;20639;-83
2023/01/19 06:17:58;;;;;;;8.17;3.80;;;24.60;38.00;;;;;;5064554;28;20263;-82
2023/01/19 06:20:25;;;;;;;6.67;3.30;;;24.60;37.90;;;;;;5062985;28;20242;-80
2023/01/19 06:22:51;;;;;;;8.57;3.47;;;24.60;38.00;;;;;;5056235;28;20206;-80
2023/01/19 06:25:18;;;;;;;7.30;3.00;;;24.60;38.00;;;;;;5070211;28;20581;-80
2023/01/19 06:27:45;;;;;;;7.20;3.13;;;24.60;38.00;;;;;;5070784;28;20200;-79
2023/01/19 06:30:13;;;;;;;5.23;2.60;;;24.60;38.00;;;;;;5070528;28;20200;-80
2023/01/19 06:32:40;;;;;;;10.83;4.23;;;24.60;38.00;;;;;;5069317;28;20595;-79
2023/01/19 06:35:09;;;;;;;6.23;2.93;;;24.70;38.00;;;;;;5070635;28;20294;-79
2023/01/19 06:37:37;;;;;;;6.50;3.23;;;24.60;38.00;;;;;;5069678;28;20290;-80
2023/01/19 06:40:04;;;;;;;10.50;4.37;;;24.60;38.00;;;;;;5069275;28;20200;-79
2023/01/19 06:42:31;;;;;;;4.87;2.50;;;24.70;38.00;;;;;;5070236;28;20278;-80
2023/01/19 06:44:58;;;;;;;5.33;2.77;;;24.70;38.00;;;;;;5070049;28;20278;-79
2023/01/19 06:47:25;;;;;;;7.47;3.37;;;24.70;38.00;;;;;;5069603;28;20199;-79
2023/01/19 06:49:52;;;;;;;7.40;3.37;;;24.70;38.00;;;;;;5067858;28;20231;-82
2023/01/19 06:52:20;;;;;;;5.57;2.83;;;24.70;38.00;;;;;;5068508;28;20207;-80
2023/01/19 06:54:47;;;;;;;6.03;3.03;;;24.70;38.00;;;;;;5070352;28;20203;-80
2023/01/19 06:57:14;;;;;;;8.83;3.60;;;24.80;38.10;;;;;;5058642;28;20204;-79
2023/01/19 06:59:41;;;;;;;6.30;2.87;;;24.70;38.00;;;;;;5066601;28;20242;-79
2023/01/19 07:02:10;;;;;;;11.13;4.53;;;24.80;38.10;;;;;;5067534;28;20756;-78
2023/01/19 07:04:36;;;;;;;6.87;3.13;;;24.80;38.00;;;;;;5056775;28;20237;-80
2023/01/19 07:07:03;;;;;;;8.23;3.67;;;24.80;38.00;;;;;;5068326;28;20199;-79
2023/01/19 07:09:32;;;;;;;8.73;3.90;;;24.80;38.00;;;;;;5069234;28;20199;-80
2023/01/19 07:11:58;;;;;;;9.07;3.63;;;24.80;38.00;;;;;;5069062;28;20276;-80
2023/01/19 07:14:29;;;;;;;7.60;3.37;;;24.80;38.00;;;;;;5065508;28;20796;-80
2023/01/19 07:16:56;;;;;;;5.87;2.90;;;24.80;38.00;;;;;;5064898;28;20211;-80
2023/01/19 07:19:23;;;;;;;7.57;3.53;;;24.80;38.00;;;;;;5052153;28;20232;-80
2023/01/19 07:21:50;;;;;;;7.63;3.53;;;24.80;37.80;;;;;;5068761;28;20238;-79
2023/01/19 07:24:17;;;;;;;8.30;3.67;;;24.80;37.90;;;;;;5068885;28;20214;-79
2023/01/19 07:26:45;;;;;;;6.27;3.23;;;24.90;38.00;;;;;;5068346;28;20298;-80
2023/01/19 07:29:12;;;;;;;6.97;3.40;;;24.90;37.90;;;;;;5056845;28;20191;-79
2023/01/19 07:31:39;;;;;;;8.40;3.80;;;24.90;37.90;;;;;;5066963;28;20601;-78
2023/01/19 07:34:07;;;;;;;8.43;3.53;;;24.90;37.90;;;;;;5063660;28;20199;-79
2023/01/19 07:36:35;;;;;;;12.23;4.67;;;24.90;37.90;;;;;;5067100;28;20322;-81
2023/01/19 07:39:01;;;;;;;9.60;4.30;;;25.00;38.00;;;;;;5068797;28;20223;-81
2023/01/19 07:41:28;;;;;;;6.93;3.30;;;24.90;37.80;;;;;;5068968;28;20207;-81
2023/01/19 07:43:57;;;;;;;6.97;3.47;;;24.90;38.50;;;;;;5068389;28;20641;-78
2023/01/19 07:46:24;;;;;;;7.90;3.53;;;24.90;37.80;;;;;;5068756;28;20278;-78
2023/01/19 07:48:50;;;;;;;7.80;3.60;;;25.00;37.90;;;;;;5067195;28;20203;-80
2023/01/19 07:51:17;;;;;;;16.03;6.13;;;25.00;37.90;;;;;;5064466;28;20286;-79
2023/01/19 07:53:45;;;;;;;6.57;3.47;;;25.00;37.80;;;;;;5064542;28;20200;-79
2023/01/19 07:56:12;;;;;;;7.70;3.67;;;25.00;37.80;;;;;;5066015;28;20291;-79
2023/01/19 07:58:39;;;;;;;6.43;2.87;;;25.00;37.80;;;;;;5066113;28;20266;-78
2023/01/19 08:01:09;;;;;;;6.13;2.90;;;25.00;37.70;;;;;;5067753;28;20205;-78
2023/01/19 08:03:37;;;;;;;6.73;3.30;;;25.00;37.70;;;;;;5067044;28;20200;-78
2023/01/19 08:06:05;;;;;;;7.90;3.70;;;25.00;37.80;;;;;;5068615;28;20203;-79
2023/01/19 08:08:33;;;;;;;11.90;4.93;;;25.00;37.70;;;;;;5066931;28;20200;-79
2023/01/19 08:11:00;;;;;;;8.50;3.77;;;25.00;37.70;;;;;;5067204;28;20206;-80
2023/01/19 08:13:27;;;;;;;7.73;3.63;;;25.00;37.70;;;;;;5058211;28;20231;-79
2023/01/19 08:15:54;;;;;;;16.77;6.57;;;25.00;37.60;;;;;;5060931;28;20674;-78
2023/01/19 08:18:22;;;;;;;14.67;5.57;;;25.10;37.70;;;;;;5059938;28;20222;-81
2023/01/19 08:20:50;;;;;;;8.57;3.47;;;25.10;37.70;;;;;;5066806;28;20207;-80
2023/01/19 08:23:18;;;;;;;7.03;3.30;;;25.00;37.60;;;;;;5063742;28;20199;-79
2023/01/19 08:25:45;;;;;;;8.70;3.80;;;25.00;37.60;;;;;;5060782;28;20633;-77
2023/01/19 08:28:14;;;;;;;6.60;3.30;;;25.00;37.60;;;;;;5069495;28;21083;-77
2023/01/19 08:30:43;;;;;;;6.23;3.30;;;25.00;37.60;;;;;;5068938;28;20892;-77
2023/01/19 08:33:10;;;;;;;10.40;4.33;;;25.00;37.70;;;;;;5061373;28;20671;-77
2023/01/19 08:35:41;;;;;;;5.70;3.17;;;25.00;37.70;;;;;;5067973;28;20235;-77
2023/01/19 08:38:10;;;;;;;7.13;3.53;;;25.00;37.60;;;;;;5068452;28;20195;-76
2023/01/19 08:40:39;;;;;;;6.40;3.30;;;25.00;37.60;;;;;;5068978;28;20214;-77
2023/01/19 08:43:08;;;;;;;6.70;3.30;;;25.00;37.60;;;;;;5068794;28;20203;-77
2023/01/19 08:45:36;;;;;;;13.90;5.60;;;25.10;37.70;;;;;;5066983;28;20194;-78
2023/01/19 08:48:05;;;;;;;7.57;3.63;;;25.00;37.60;;;;;;5067577;28;20203;-76
2023/01/19 08:50:33;;;;;;;10.53;4.10;;;25.10;37.70;;;;;;5065754;28;20295;-76
2023/01/19 08:53:03;;;;;;;6.73;3.37;;;25.10;37.70;;;;;;5069125;28;20196;-76
2023/01/19 08:55:30;;;;;;;8.30;4.13;;;25.10;37.70;;;;;;5068541;28;20647;-76
2023/01/19 08:57:58;;;;;;;8.97;4.13;;;25.10;37.70;;;;;;5068805;28;20294;-76
2023/01/19 09:00:26;;;;;;;10.80;4.83;;;25.10;37.70;;;;;;5067485;28;20223;-77
2023/01/19 09:02:55;;;;;;;6.10;3.20;;;25.10;37.70;;;;;;5067569;28;20884;-76
2023/01/19 09:05:22;;;;;;;9.33;3.63;;;25.10;37.70;;;;;;5068473;28;20210;-77
2023/01/19 09:07:50;;;;;;;6.97;3.67;;;25.10;37.70;;;;;;5050468;28;20299;-83
2023/01/19 09:10:19;;;;;;;7.73;3.80;;;25.10;38.30;;;;;;5048329;28;20283;-77
2023/01/19 09:12:46;;;;;;;9.17;4.37;;;25.10;37.70;;;;;;5048476;28;20200;-77
2023/01/19 09:15:13;;;;;;;7.60;3.70;;;25.10;37.70;;;;;;5051306;28;20204;-77
2023/01/19 09:17:41;;;;;;;9.30;4.13;;;25.10;37.70;;;;;;5058724;28;20659;-77
2023/01/19 09:20:09;;;;;;;8.07;3.60;;;25.10;37.70;;;;;;5067431;28;20234;-78
2023/01/19 09:22:38;;;;;;;6.53;3.47;;;25.10;37.70;;;;;;5062359;28;20574;-78
2023/01/19 09:25:06;;;;;;;6.30;3.33;;;25.10;37.70;;;;;;5053755;28;20265;-77
2023/01/19 09:27:35;;;;;;;6.23;3.37;;;25.20;38.40;;;;;;5066063;28;20943;-80
2023/01/19 09:30:03;;;;;;;7.53;3.90;;;25.10;37.70;;;;;;5068435;28;20552;-77
2023/01/19 09:32:29;;;;;;;6.93;3.37;;;25.10;37.70;;;;;;5067881;28;20912;-82
2023/01/19 09:34:56;;;;;;;10.27;4.57;;;25.10;37.70;;;;;;5068418;28;20192;-75
2023/01/19 09:37:23;;;;;;;8.60;4.03;;;25.20;37.70;;;;;;5057792;28;20205;-73
2023/01/19 09:39:50;;;;;;;6.93;3.47;;;25.20;37.70;;;;;;5068029;28;20220;-76
2023/01/19 09:42:23;;;;;;;9.30;4.00;;;25.20;37.80;;;;;;5066215;28;20279;-80
2023/01/19 09:44:53;;;;;;;15.33;6.13;;;25.20;37.70;;;;;;5067389;28;20200;-79
2023/01/19 09:47:24;;;;;;;5.97;3.00;;;25.20;37.70;;;;;;5068374;28;20202;-74
2023/01/19 09:49:57;;;;;;;7.40;3.60;;;25.20;37.70;;;;;;5067065;28;20257;-84
2023/01/19 09:52:24;;;;;;;9.53;3.53;;;25.20;37.60;;;;;;5071554;28;20289;-77
2023/01/19 09:54:55;;;;;;;8.80;4.03;;;25.20;37.60;;;;;;5071680;28;20187;-75
2023/01/19 09:57:23;;;;;;;8.63;3.67;;;25.30;37.60;;;;;;5068471;28;20206;-74
2023/01/19 09:59:56;;;;;;;9.00;4.03;;;25.30;37.70;;;;;;5075743;28;20219;-72
2023/01/19 10:02:35;;;;;;;11.63;5.10;;;25.30;37.70;;;;;;5067089;28;20276;-74
2023/01/19 10:05:04;;;;;;;8.73;3.90;;;25.30;37.60;;;;;;5060407;28;20237;-76
2023/01/19 10:07:51;;;;;;;7.30;3.47;;;25.30;37.80;;;;;;5063000;28;20235;-84
2023/01/19 10:10:21;;;;;;;14.53;5.60;;;25.30;37.80;;;;;;5070112;28;20293;-73
2023/01/19 10:13:04;;;;;;;8.77;3.63;;;25.40;37.90;;;;;;5056918;28;20210;-79
2023/01/19 10:15:45;;;;;;;7.97;3.73;;;25.40;37.70;;;;;;5061433;28;20199;-70
2023/01/19 10:18:19;;;;;;;9.17;4.37;;;25.40;37.90;;;;;;5068122;28;20211;-69
2023/01/19 10:20:50;;;;;;;8.63;3.87;;;25.50;38.40;;;;;;5067741;28;20224;-70
2023/01/19 10:23:32;;;;;;;9.27;4.43;;;25.50;37.90;;;;;;5070853;28;20207;-72
2023/01/19 10:26:04;;;;;;;9.43;4.37;;;25.50;37.80;;;;;;5070981;28;20196;-77
2023/01/19 10:28:31;;;;;;;9.70;3.93;;;25.50;37.90;;;;;;5069851;28;20199;-72
2023/01/19 10:31:00;;;;;;;15.30;6.40;;;25.60;38.10;;;;;;5061122;28;20219;-70
2023/01/19 10:33:27;;;;;;;10.77;4.57;;;25.60;38.20;;;;;;5069507;28;20210;-74
2023/01/19 10:35:54;;;;;;;9.27;3.73;;;25.70;38.20;;;;;;5070425;28;20200;-70
2023/01/19 10:38:21;;;;;;;10.03;4.13;;;25.80;38.20;;;;;;5070409;28;20835;-73
2023/01/19 10:40:55;;;;;;;6.93;3.47;;;25.90;38.20;;;;;;5070534;28;20338;-72
2023/01/19 10:43:42;;;;;;;9.30;4.13;;;26.00;38.20;;;;;;5070603;28;20266;-77
2023/01/19 10:46:21;;;;;;;9.00;4.27;;;26.10;38.00;;;;;;5069492;28;20196;-71
2023/01/19 10:48:50;;;;;;;9.10;4.10;;;26.20;38.10;;;;;;5070795;28;20199;-68
2023/01/19 10:51:17;;;;;;;8.97;3.97;;;26.30;38.10;;;;;;5070911;28;20286;-68
2023/01/19 10:53:57;;;;;;;11.70;5.07;;;26.50;38.10;;;;;;5068789;28;20203;-69
2023/01/19 10:56:27;;;;;;;8.37;3.93;;;26.60;37.90;;;;;;5072077;28;20282;-67
2023/01/19 10:58:54;;;;;;;7.00;3.77;;;26.70;38.10;;;;;;5064333;28;20196;-74
2023/01/19 11:01:24;;;;;;;8.67;3.40;;;26.90;38.60;;;;;;5054600;28;20284;-77
2023/01/19 11:03:53;;;;;;;8.00;3.43;;;26.90;37.80;;;;;;5051962;28;20198;-78
2023/01/19 11:06:26;;;;;;;9.50;4.27;;;27.00;37.80;;;;;;5070107;28;20302;-80
2023/01/19 11:09:08;;;;;;;6.70;3.33;;;27.10;37.60;;;;;;5069952;28;20663;-72
2023/01/19 11:11:42;;;;;;;5.57;3.23;;;27.10;37.60;;;;;;5068579;28;20205;-83
2023/01/19 11:14:12;;;;;;;7.90;3.97;;;27.20;37.40;;;;;;5064002;28;20203;-77
2023/01/19 11:16:45;;;;;;;8.27;3.87;;;27.20;37.30;;;;;;5069466;28;20287;-77
2023/01/19 11:19:25;;;;;;;6.63;3.47;;;27.30;37.40;;;;;;5069575;28;20262;-75
2023/01/19 11:21:53;;;;;;;7.47;3.70;;;27.20;37.20;;;;;;5070470;28;20203;-83
2023/01/19 11:24:21;;;;;;;7.23;3.63;;;27.20;37.30;;;;;;5068328;28;20635;-81
2023/01/19 11:26:50;;;;;;;5.73;3.20;;;27.20;37.30;;;;;;5068143;28;20200;-86
2023/01/19 11:29:20;;;;;;;16.03;6.23;;;27.20;37.30;;;;;;5063724;28;20257;-77
2023/01/19 11:31:50;;;;;;;7.40;3.23;;;27.20;37.30;;;;;;5066667;28;20225;-75
2023/01/19 11:34:25;;;;;;;6.17;3.27;;;27.20;37.20;;;;;;5068414;28;20557;-79
2023/01/19 11:37:01;;;;;;;5.83;3.33;;;27.20;37.20;;;;;;5067965;28;20619;-80
2023/01/19 11:39:29;;;;;;;13.67;6.00;;;27.20;37.20;;;;;;5059107;28;20305;-83
2023/01/19 11:41:58;;;;;;;9.13;4.13;;;27.10;37.10;;;;;;5068351;28;20278;-76
2023/01/19 11:44:30;;;;;;;7.10;3.80;;;27.10;37.20;;;;;;5056951;28;20203;-75
2023/01/19 11:47:00;;;;;;;8.53;3.50;;;27.10;37.30;;;;;;5056341;28;20207;-77
2023/01/19 11:49:40;;;;;;;13.83;5.80;;;27.10;37.30;;;;;;5064995;28;20204;-80
2023/01/19 11:52:16;;;;;;;8.30;4.03;;;27.10;37.20;;;;;;5065933;28;20192;-77
2023/01/19 11:54:52;;;;;;;6.93;3.57;;;27.00;37.30;;;;;;5068602;28;20231;-78
2023/01/19 11:57:19;;;;;;;12.60;5.47;;;27.00;37.10;;;;;;5067704;28;20250;-83
2023/01/19 11:59:46;;;;;;;11.57;4.70;;;27.10;37.10;;;;;;5071348;28;20215;-84
2023/01/19 12:02:24;;;;;;;9.03;4.17;;;27.00;37.10;;;;;;5065615;28;20542;-83
2023/01/19 12:04:54;;;;;;;5.17;2.93;;;26.90;36.90;;;;;;5063998;28;20206;-81
2023/01/19 12:07:28;;;;;;;8.70;4.13;;;26.90;37.00;;;;;;5067588;28;20253;-85
2023/01/19 12:10:02;;;;;;;11.67;5.23;;;26.90;37.10;;;;;;5064627;28;20694;-83
2023/01/19 12:12:31;;;;;;;7.57;3.80;;;26.80;37.20;;;;;;5074032;28;20519;-82
2023/01/19 12:15:02;;;;;;;7.90;3.50;;;26.80;37.40;;;;;;5067905;28;20206;-81
2023/01/19 12:17:33;;;;;;;10.07;3.63;;;26.70;37.50;;;;;;5063788;28;20222;-78
2023/01/19 12:20:06;;;;;;;11.03;4.43;;;26.70;37.60;;;;;;5058047;28;20224;-78
2023/01/19 12:22:41;;;;;;;14.27;5.17;;;26.70;37.70;;;;;;5064467;28;20727;-75
2023/01/19 12:25:19;;;;;;;6.30;3.27;;;26.60;37.60;;;;;;5077330;28;20575;-74
2023/01/19 12:27:47;;;;;;;6.33;2.90;;;26.70;37.70;;;;;;5071027;28;20290;-74
2023/01/19 12:30:19;;;;;;;10.10;4.27;;;26.60;37.60;;;;;;5066096;28;20326;-74
2023/01/19 12:32:50;;;;;;;6.90;3.23;;;26.60;37.60;;;;;;5060368;28;20564;-74
2023/01/19 12:35:54;;;;;;;7.33;3.70;;;26.60;37.70;;;;;;5066717;28;20847;-75
2023/01/19 12:38:46;;;;;;;6.97;3.13;;;26.50;37.60;;;;;;5067360;28;20331;-77
2023/01/19 12:41:23;;;;;;;9.70;4.50;;;26.50;37.70;;;;;;5066439;28;20262;-80
2023/01/19 12:44:19;;;;;;;17.93;6.50;;;26.50;37.70;;;;;;5057509;28;20207;-73
2023/01/19 12:46:49;;;;;;;7.77;3.83;;;26.50;37.60;;;;;;5062093;28;20196;-77
2023/01/19 12:49:23;;;;;;;8.07;3.83;;;26.50;37.70;;;;;;5067164;28;20211;-72
2023/01/19 12:51:53;;;;;;;6.93;3.17;;;26.50;38.40;;;;;;5068384;28;20925;-73
2023/01/19 12:54:27;;;;;;;6.50;3.30;;;26.50;37.80;;;;;;5066060;28;20214;-72
2023/01/19 12:57:00;;;;;;;6.10;3.10;;;26.40;37.70;;;;;;5067989;28;20215;-72
2023/01/19 12:59:27;;;;;;;7.70;3.40;;;26.40;37.80;;;;;;5064704;28;20206;-74
2023/01/19 13:02:52;;;;;;;11.97;4.63;;;26.40;37.80;;;;;;5065484;28;20217;-81
2023/01/19 13:05:39;;;;;;;9.93;4.00;;;26.30;37.70;;;;;;5058636;28;20199;-72